sensor_id;sensor_type;location;lat;lon;timestamp;pressure;altitude;pressure_sealevel;temperature;humidity
49943;BME280;36011;53.362;58.948;2023-01-31T00:02:48;97151.22;;;-13.83;63.48
49943;BME280;36011;53.362;58.948;2023-01-31T00:05:49;97141.19;;;-13.54;63.18
49943;BME280;36011;53.362;58.948;2023-01-31T00:08:51;97148.59;;;-13.61;62.65
49943;BME280;36011;53.362;58.948;2023-01-31T00:11:54;97145.13;;;-13.88;62.97
49943;BME280;36011;53.362;58.948;2023-01-31T00:14:58;97142.03;;;-14.05;63.64
49943;BME280;36011;53.362;58.948;2023-01-31T00:18:00;97136.03;;;-14.07;63.50
49943;BME280;36011;53.362;58.948;2023-01-31T00:21:08;97135.09;;;-14.11;63.54
49943;BME280;36011;53.362;58.948;2023-01-31T00:24:12;97139.69;;;-13.99;63.96
49943;BME280;36011;53.362;58.948;2023-01-31T00:27:13;97138.50;;;-13.85;63.88
49943;BME280;36011;53.362;58.948;2023-01-31T00:30:14;97152.16;;;-13.80;63.45
49943;BME280;36011;53.362;58.948;2023-01-31T00:33:15;97148.22;;;-13.71;63.67
49943;BME280;36011;53.362;58.948;2023-01-31T00:36:18;97142.13;;;-13.52;64.03
49943;BME280;36011;53.362;58.948;2023-01-31T00:39:21;97142.28;;;-13.19;63.61
49943;BME280;36011;53.362;58.948;2023-01-31T00:42:22;97148.44;;;-13.13;63.85
49943;BME280;36011;53.362;58.948;2023-01-31T00:45:27;97147.09;;;-13.01;63.78
49943;BME280;36011;53.362;58.948;2023-01-31T00:48:31;97139.41;;;-12.76;64.00
49943;BME280;36011;53.362;58.948;2023-01-31T00:51:32;97140.81;;;-12.27;64.11
49943;BME280;36011;53.362;58.948;2023-01-31T00:54:35;97137.97;;;-12.37;64.11
49943;BME280;36011;53.362;58.948;2023-01-31T00:57:39;97143.44;;;-12.24;64.54
49943;BME280;36011;53.362;58.948;2023-01-31T01:00:40;97140.81;;;-12.27;64.22
49943;BME280;36011;53.362;58.948;2023-01-31T01:03:41;97139.06;;;-12.29;64.26
49943;BME280;36011;53.362;58.948;2023-01-31T01:06:45;97135.34;;;-12.42;64.29
49943;BME280;36011;53.362;58.948;2023-01-31T01:09:49;97129.84;;;-12.27;64.36
49943;BME280;36011;53.362;58.948;2023-01-31T01:12:54;97131.00;;;-12.16;63.10
49943;BME280;36011;53.362;58.948;2023-01-31T01:15:55;97129.13;;;-12.52;63.62
49943;BME280;36011;53.362;58.948;2023-01-31T01:18:56;97144.41;;;-12.79;63.41
49943;BME280;36011;53.362;58.948;2023-01-31T01:21:57;97135.78;;;-12.84;64.26
49943;BME280;36011;53.362;58.948;2023-01-31T01:24:59;97140.69;;;-12.90;64.30
49943;BME280;36011;53.362;58.948;2023-01-31T01:28:00;97132.47;;;-13.10;63.91
49943;BME280;36011;53.362;58.948;2023-01-31T01:31:05;97139.06;;;-13.15;64.32
49943;BME280;36011;53.362;58.948;2023-01-31T01:34:07;97131.41;;;-13.17;64.70
49943;BME280;36011;53.362;58.948;2023-01-31T01:37:08;97143.28;;;-13.16;64.68
49943;BME280;36011;53.362;58.948;2023-01-31T01:40:14;97144.97;;;-13.15;64.38
49943;BME280;36011;53.362;58.948;2023-01-31T01:43:15;97143.41;;;-13.11;64.61
49943;BME280;36011;53.362;58.948;2023-01-31T01:46:22;97146.06;;;-13.06;64.10
49943;BME280;36011;53.362;58.948;2023-01-31T01:52:29;97156.59;;;-12.94;64.63
49943;BME280;36011;53.362;58.948;2023-01-31T01:55:40;97153.25;;;-12.93;64.01
49943;BME280;36011;53.362;58.948;2023-01-31T01:58:44;97150.41;;;-13.02;63.82
49943;BME280;36011;53.362;58.948;2023-01-31T02:01:49;97138.66;;;-13.00;63.59
49943;BME280;36011;53.362;58.948;2023-01-31T02:05:04;97139.38;;;-13.33;63.25
49943;BME280;36011;53.362;58.948;2023-01-31T02:08:06;97136.50;;;-13.44;63.33
49943;BME280;36011;53.362;58.948;2023-01-31T02:11:19;97135.13;;;-13.60;63.67
49943;BME280;36011;53.362;58.948;2023-01-31T02:14:21;97144.38;;;-13.60;63.44
49943;BME280;36011;53.362;58.948;2023-01-31T02:17:50;97141.47;;;-13.47;63.63
49943;BME280;36011;53.362;58.948;2023-01-31T02:33:55;97133.03;;;-13.19;62.83
49943;BME280;36011;53.362;58.948;2023-01-31T02:46:14;97128.91;;;-12.88;62.58
49943;BME280;36011;53.362;58.948;2023-01-31T02:49:24;97131.41;;;-12.90;61.60
49943;BME280;36011;53.362;58.948;2023-01-31T02:55:56;97119.41;;;-12.67;60.94
49943;BME280;36011;53.362;58.948;2023-01-31T02:59:22;97125.41;;;-12.64;60.94
49943;BME280;36011;53.362;58.948;2023-01-31T03:02:26;97127.38;;;-12.83;60.78
49943;BME280;36011;53.362;58.948;2023-01-31T03:05:30;97128.69;;;-12.67;61.25
49943;BME280;36011;53.362;58.948;2023-01-31T03:08:31;97134.25;;;-12.79;61.54
49943;BME280;36011;53.362;58.948;2023-01-31T03:11:38;97130.84;;;-12.79;61.50
49943;BME280;36011;53.362;58.948;2023-01-31T03:18:06;97132.25;;;-12.89;61.57
49943;BME280;36011;53.362;58.948;2023-01-31T03:21:13;97140.41;;;-12.71;62.21
49943;BME280;36011;53.362;58.948;2023-01-31T03:24:17;97141.22;;;-12.72;61.82
49943;BME280;36011;53.362;58.948;2023-01-31T03:27:21;97150.56;;;-12.42;61.87
49943;BME280;36011;53.362;58.948;2023-01-31T03:30:33;97149.63;;;-12.44;61.86
49943;BME280;36011;53.362;58.948;2023-01-31T03:33:39;97161.03;;;-12.30;62.42
49943;BME280;36011;53.362;58.948;2023-01-31T03:36:56;97156.13;;;-12.24;62.33
49943;BME280;36011;53.362;58.948;2023-01-31T03:40:02;97156.03;;;-12.27;62.05
49943;BME280;36011;53.362;58.948;2023-01-31T03:46:13;97157.25;;;-11.81;62.24
49943;BME280;36011;53.362;58.948;2023-01-31T03:49:16;97166.97;;;-11.66;61.71
49943;BME280;36011;53.362;58.948;2023-01-31T03:52:24;97169.06;;;-11.83;62.08
49943;BME280;36011;53.362;58.948;2023-01-31T03:55:28;97176.72;;;-11.81;62.54
49943;BME280;36011;53.362;58.948;2023-01-31T03:58:37;97180.94;;;-11.82;62.45
49943;BME280;36011;53.362;58.948;2023-01-31T04:01:42;97176.00;;;-11.77;62.36
49943;BME280;36011;53.362;58.948;2023-01-31T04:04:49;97182.44;;;-11.90;62.23
49943;BME280;36011;53.362;58.948;2023-01-31T04:07:51;97184.81;;;-11.96;62.80
49943;BME280;36011;53.362;58.948;2023-01-31T04:10:54;97187.97;;;-12.03;62.91
49943;BME280;36011;53.362;58.948;2023-01-31T04:14:00;97187.78;;;-12.11;62.97
49943;BME280;36011;53.362;58.948;2023-01-31T04:17:01;97186.72;;;-12.17;62.73
49943;BME280;36011;53.362;58.948;2023-01-31T04:20:03;97187.25;;;-12.29;62.85
49943;BME280;36011;53.362;58.948;2023-01-31T04:23:05;97184.47;;;-12.37;63.26
49943;BME280;36011;53.362;58.948;2023-01-31T04:26:09;97191.13;;;-12.42;63.31
49943;BME280;36011;53.362;58.948;2023-01-31T04:29:11;97193.75;;;-12.39;62.97
49943;BME280;36011;53.362;58.948;2023-01-31T04:32:16;97186.66;;;-12.49;62.39
49943;BME280;36011;53.362;58.948;2023-01-31T04:35:18;97181.81;;;-12.41;63.11
49943;BME280;36011;53.362;58.948;2023-01-31T04:38:19;97186.97;;;-12.38;62.62
49943;BME280;36011;53.362;58.948;2023-01-31T04:41:22;97185.47;;;-12.32;62.75
49943;BME280;36011;53.362;58.948;2023-01-31T04:44:28;97181.41;;;-12.27;62.52
49943;BME280;36011;53.362;58.948;2023-01-31T04:47:32;97178.16;;;-12.23;62.13
49943;BME280;36011;53.362;58.948;2023-01-31T04:50:37;97177.13;;;-11.99;61.96
49943;BME280;36011;53.362;58.948;2023-01-31T04:53:42;97176.88;;;-12.08;61.68
49943;BME280;36011;53.362;58.948;2023-01-31T04:56:44;97190.78;;;-11.94;61.12
49943;BME280;36011;53.362;58.948;2023-01-31T05:00:00;97182.41;;;-11.58;60.19
49943;BME280;36011;53.362;58.948;2023-01-31T05:03:04;97183.75;;;-11.71;59.80
49943;BME280;36011;53.362;58.948;2023-01-31T05:06:06;97183.00;;;-11.68;59.76
49943;BME280;36011;53.362;58.948;2023-01-31T05:09:11;97186.16;;;-11.76;59.76
49943;BME280;36011;53.362;58.948;2023-01-31T05:12:13;97179.06;;;-11.57;60.46
49943;BME280;36011;53.362;58.948;2023-01-31T05:15:14;97183.78;;;-11.38;59.93
49943;BME280;36011;53.362;58.948;2023-01-31T05:18:17;97176.69;;;-11.16;59.98
49943;BME280;36011;53.362;58.948;2023-01-31T05:21:18;97176.66;;;-10.83;59.19
49943;BME280;36011;53.362;58.948;2023-01-31T05:24:22;97178.66;;;-10.68;58.36
49943;BME280;36011;53.362;58.948;2023-01-31T05:27:24;97175.88;;;-10.79;58.79
49943;BME280;36011;53.362;58.948;2023-01-31T05:30:27;97177.09;;;-10.63;59.09
49943;BME280;36011;53.362;58.948;2023-01-31T05:33:28;97180.59;;;-10.58;58.59
49943;BME280;36011;53.362;58.948;2023-01-31T05:36:43;97180.94;;;-10.43;59.08
49943;BME280;36011;53.362;58.948;2023-01-31T05:40:11;97179.06;;;-10.09;58.64
49943;BME280;36011;53.362;58.948;2023-01-31T05:43:27;97181.34;;;-9.80;58.26
49943;BME280;36011;53.362;58.948;2023-01-31T05:46:38;97192.91;;;-9.54;58.13
49943;BME280;36011;53.362;58.948;2023-01-31T05:49:47;97187.41;;;-9.28;57.12
49943;BME280;36011;53.362;58.948;2023-01-31T05:53:01;97187.00;;;-9.02;55.61
49943;BME280;36011;53.362;58.948;2023-01-31T05:56:08;97184.59;;;-8.92;55.86
49943;BME280;36011;53.362;58.948;2023-01-31T06:02:50;97181.22;;;-7.66;55.07
49943;BME280;36011;53.362;58.948;2023-01-31T06:05:55;97174.13;;;-7.09;51.37
49943;BME280;36011;53.362;58.948;2023-01-31T06:09:01;97189.66;;;-6.88;51.84
49943;BME280;36011;53.362;58.948;2023-01-31T06:12:04;97190.91;;;-6.37;50.75
49943;BME280;36011;53.362;58.948;2023-01-31T06:15:09;97193.94;;;-5.17;51.36
49943;BME280;36011;53.362;58.948;2023-01-31T06:22:20;97195.94;;;-0.54;45.36
49943;BME280;36011;53.362;58.948;2023-01-31T06:25:49;97185.66;;;0.39;42.71
49943;BME280;36011;53.362;58.948;2023-01-31T06:28:52;97188.81;;;1.34;42.42
49943;BME280;36011;53.362;58.948;2023-01-31T06:31:57;97191.31;;;2.72;40.61
49943;BME280;36011;53.362;58.948;2023-01-31T06:35:26;97204.38;;;3.28;40.06
49943;BME280;36011;53.362;58.948;2023-01-31T06:38:30;97204.38;;;3.00;39.91
49943;BME280;36011;53.362;58.948;2023-01-31T06:41:33;97207.22;;;2.92;39.33
49943;BME280;36011;53.362;58.948;2023-01-31T06:44:37;97204.38;;;2.37;36.21
49943;BME280;36011;53.362;58.948;2023-01-31T06:47:43;97202.66;;;2.05;40.28
49943;BME280;36011;53.362;58.948;2023-01-31T06:50:49;97212.50;;;2.58;41.77
49943;BME280;36011;53.362;58.948;2023-01-31T06:53:52;97208.16;;;2.58;41.68
49943;BME280;36011;53.362;58.948;2023-01-31T06:56:57;97201.97;;;1.98;39.52
49943;BME280;36011;53.362;58.948;2023-01-31T07:00:02;97203.69;;;0.46;40.34
49943;BME280;36011;53.362;58.948;2023-01-31T07:03:17;97212.09;;;-0.39;43.05
49943;BME280;36011;53.362;58.948;2023-01-31T07:06:26;97209.72;;;-0.55;44.60
49943;BME280;36011;53.362;58.948;2023-01-31T07:09:31;97211.19;;;-0.38;43.84
49943;BME280;36011;53.362;58.948;2023-01-31T07:12:36;97204.59;;;-0.05;42.00
49943;BME280;36011;53.362;58.948;2023-01-31T07:15:41;97212.88;;;0.59;42.02
49943;BME280;36011;53.362;58.948;2023-01-31T07:18:45;97208.16;;;2.27;39.23
49943;BME280;36011;53.362;58.948;2023-01-31T07:21:50;97201.94;;;3.23;37.32
49943;BME280;36011;53.362;58.948;2023-01-31T07:24:55;97200.50;;;3.13;37.91
49943;BME280;36011;53.362;58.948;2023-01-31T07:28:12;97198.97;;;2.78;35.18
49943;BME280;36011;53.362;58.948;2023-01-31T07:31:17;97199.38;;;1.63;37.93
49943;BME280;36011;53.362;58.948;2023-01-31T07:34:23;97204.16;;;1.44;39.43
49943;BME280;36011;53.362;58.948;2023-01-31T07:37:28;97202.63;;;1.35;38.92
49943;BME280;36011;53.362;58.948;2023-01-31T07:40:32;97207.94;;;1.30;39.28
49943;BME280;36011;53.362;58.948;2023-01-31T07:43:37;97213.78;;;1.74;38.48
49943;BME280;36011;53.362;58.948;2023-01-31T07:46:46;97205.56;;;2.25;37.55
49943;BME280;36011;53.362;58.948;2023-01-31T07:49:52;97206.78;;;2.12;37.37
49943;BME280;36011;53.362;58.948;2023-01-31T07:52:59;97191.56;;;1.64;37.08
49943;BME280;36011;53.362;58.948;2023-01-31T07:56:08;97194.00;;;1.34;37.65
49943;BME280;36011;53.362;58.948;2023-01-31T07:59:11;97190.50;;;0.98;38.54
49943;BME280;36011;53.362;58.948;2023-01-31T08:02:16;97200.34;;;0.82;37.55
49943;BME280;36011;53.362;58.948;2023-01-31T08:05:35;97199.19;;;0.96;37.47
49943;BME280;36011;53.362;58.948;2023-01-31T08:08:43;97205.44;;;1.26;34.58
49943;BME280;36011;53.362;58.948;2023-01-31T08:11:49;97197.34;;;1.40;36.47
49943;BME280;36011;53.362;58.948;2023-01-31T08:14:53;97193.69;;;1.47;36.58
49943;BME280;36011;53.362;58.948;2023-01-31T08:17:59;97188.44;;;1.50;35.21
49943;BME280;36011;53.362;58.948;2023-01-31T08:21:06;97191.41;;;0.96;36.08
49943;BME280;36011;53.362;58.948;2023-01-31T08:24:10;97189.66;;;0.11;36.70
49943;BME280;36011;53.362;58.948;2023-01-31T08:30:58;97203.25;;;-0.83;38.15
49943;BME280;36011;53.362;58.948;2023-01-31T08:34:02;97194.16;;;-1.10;37.04
49943;BME280;36011;53.362;58.948;2023-01-31T08:37:04;97190.31;;;-1.44;36.14
49943;BME280;36011;53.362;58.948;2023-01-31T08:40:08;97184.19;;;-2.12;37.23
49943;BME280;36011;53.362;58.948;2023-01-31T08:43:15;97178.41;;;-2.37;35.90
49943;BME280;36011;53.362;58.948;2023-01-31T08:46:20;97186.66;;;-3.09;37.82
49943;BME280;36011;53.362;58.948;2023-01-31T08:49:25;97179.78;;;-3.07;37.99
49943;BME280;36011;53.362;58.948;2023-01-31T08:52:31;97175.66;;;-3.34;37.98
49943;BME280;36011;53.362;58.948;2023-01-31T08:55:41;97179.84;;;-3.17;37.76
49943;BME280;36011;53.362;58.948;2023-01-31T08:58:47;97173.91;;;-3.25;37.51
49943;BME280;36011;53.362;58.948;2023-01-31T09:01:49;97173.31;;;-3.82;38.35
49943;BME280;36011;53.362;58.948;2023-01-31T09:04:56;97176.81;;;-4.23;38.81
49943;BME280;36011;53.362;58.948;2023-01-31T09:07:58;97172.59;;;-4.67;39.96
49943;BME280;36011;53.362;58.948;2023-01-31T09:11:05;97166.59;;;-4.60;40.06
49943;BME280;36011;53.362;58.948;2023-01-31T09:14:07;97173.44;;;-4.83;40.43
49943;BME280;36011;53.362;58.948;2023-01-31T09:17:11;97167.44;;;-4.45;40.06
49943;BME280;36011;53.362;58.948;2023-01-31T09:20:12;97167.38;;;-4.04;39.56
49943;BME280;36011;53.362;58.948;2023-01-31T09:23:18;97171.69;;;-4.26;39.59
49943;BME280;36011;53.362;58.948;2023-01-31T09:26:20;97173.38;;;-4.07;39.55
49943;BME280;36011;53.362;58.948;2023-01-31T09:29:27;97181.88;;;-3.89;39.00
49943;BME280;36011;53.362;58.948;2023-01-31T09:32:36;97166.31;;;-3.52;38.69
49943;BME280;36011;53.362;58.948;2023-01-31T09:35:53;97173.53;;;-2.73;37.28
49943;BME280;36011;53.362;58.948;2023-01-31T09:39:04;97185.28;;;-0.91;34.54
49943;BME280;36011;53.362;58.948;2023-01-31T09:45:35;97174.47;;;-0.08;32.92
49943;BME280;36011;53.362;58.948;2023-01-31T09:48:43;97172.38;;;0.13;31.24
49943;BME280;36011;53.362;58.948;2023-01-31T09:51:54;97168.97;;;0.54;31.68
49943;BME280;36011;53.362;58.948;2023-01-31T09:55:13;97164.00;;;2.88;29.35
49943;BME280;36011;53.362;58.948;2023-01-31T10:08:39;97171.13;;;4.17;27.26
49943;BME280;36011;53.362;58.948;2023-01-31T10:11:48;97177.47;;;2.09;29.91
49943;BME280;36011;53.362;58.948;2023-01-31T10:14:57;97178.41;;;1.72;30.50
49943;BME280;36011;53.362;58.948;2023-01-31T10:18:09;97165.41;;;0.99;30.85
49943;BME280;36011;53.362;58.948;2023-01-31T10:21:21;97179.81;;;1.85;29.11
49943;BME280;36011;53.362;58.948;2023-01-31T10:28:11;97163.97;;;3.18;27.43
49943;BME280;36011;53.362;58.948;2023-01-31T10:31:31;97165.91;;;2.52;28.27
49943;BME280;36011;53.362;58.948;2023-01-31T10:34:41;97168.38;;;2.56;28.62
49943;BME280;36011;53.362;58.948;2023-01-31T10:38:16;97166.66;;;2.86;28.53
49943;BME280;36011;53.362;58.948;2023-01-31T10:46:00;97177.00;;;2.58;28.41
49943;BME280;36011;53.362;58.948;2023-01-31T10:49:14;97188.59;;;2.12;29.38
49943;BME280;36011;53.362;58.948;2023-01-31T11:00:25;97204.09;;;-1.48;34.39
49943;BME280;36011;53.362;58.948;2023-01-31T11:03:33;97195.09;;;-2.83;36.43
49943;BME280;36011;53.362;58.948;2023-01-31T11:06:35;97197.16;;;-3.49;37.91
49943;BME280;36011;53.362;58.948;2023-01-31T11:09:40;97197.25;;;-3.74;38.25
49943;BME280;36011;53.362;58.948;2023-01-31T11:13:10;97198.97;;;-3.71;37.64
49943;BME280;36011;53.362;58.948;2023-01-31T11:16:27;97202.56;;;-4.69;38.87
49943;BME280;36011;53.362;58.948;2023-01-31T11:19:36;97205.06;;;-5.04;39.34
49943;BME280;36011;53.362;58.948;2023-01-31T11:22:46;97200.78;;;-5.16;39.84
49943;BME280;36011;53.362;58.948;2023-01-31T11:33:35;97205.63;;;-5.93;41.51
49943;BME280;36011;53.362;58.948;2023-01-31T11:36:44;97208.84;;;-6.30;41.56
49943;BME280;36011;53.362;58.948;2023-01-31T11:39:56;97206.19;;;-6.47;42.22
49943;BME280;36011;53.362;58.948;2023-01-31T11:43:05;97201.19;;;-6.23;43.01
49943;BME280;36011;53.362;58.948;2023-01-31T11:46:09;97198.25;;;-4.96;41.05
49943;BME280;36011;53.362;58.948;2023-01-31T11:52:32;97195.16;;;-1.93;35.58
49943;BME280;36011;53.362;58.948;2023-01-31T11:55:39;97198.94;;;-1.46;34.23
49943;BME280;36011;53.362;58.948;2023-01-31T11:59:05;97191.38;;;-2.48;35.44
49943;BME280;36011;53.362;58.948;2023-01-31T12:03:28;97197.38;;;-4.93;39.77
49943;BME280;36011;53.362;58.948;2023-01-31T12:06:39;97200.44;;;-6.11;41.67
49943;BME280;36011;53.362;58.948;2023-01-31T12:13:15;97206.25;;;-7.36;44.71
49943;BME280;36011;53.362;58.948;2023-01-31T12:20:50;97219.00;;;-8.07;44.96
49943;BME280;36011;53.362;58.948;2023-01-31T12:40:15;97235.00;;;-8.77;48.31
49943;BME280;36011;53.362;58.948;2023-01-31T12:43:57;97238.59;;;-9.14;48.81
49943;BME280;36011;53.362;58.948;2023-01-31T12:50:10;97245.25;;;-9.68;48.98
49943;BME280;36011;53.362;58.948;2023-01-31T13:09:31;97244.09;;;-10.23;49.71
49943;BME280;36011;53.362;58.948;2023-01-31T13:12:40;97252.81;;;-10.12;50.07
49943;BME280;36011;53.362;58.948;2023-01-31T13:15:47;97255.00;;;-9.89;51.09
49943;BME280;36011;53.362;58.948;2023-01-31T13:18:50;97252.56;;;-10.24;51.10
49943;BME280;36011;53.362;58.948;2023-01-31T13:22:10;97250.72;;;-10.31;51.89
49943;BME280;36011;53.362;58.948;2023-01-31T13:32:22;97250.00;;;-10.62;52.77
49943;BME280;36011;53.362;58.948;2023-01-31T13:35:32;97262.91;;;-10.54;53.46
49943;BME280;36011;53.362;58.948;2023-01-31T13:38:41;97261.47;;;-10.43;54.12
49943;BME280;36011;53.362;58.948;2023-01-31T13:41:44;97263.34;;;-10.72;53.94
49943;BME280;36011;53.362;58.948;2023-01-31T13:44:47;97263.25;;;-10.75;54.85
49943;BME280;36011;53.362;58.948;2023-01-31T13:47:52;97270.63;;;-10.86;54.98
49943;BME280;36011;53.362;58.948;2023-01-31T13:51:12;97263.63;;;-11.28;55.13
49943;BME280;36011;53.362;58.948;2023-01-31T13:54:33;97272.31;;;-11.51;55.28
49943;BME280;36011;53.362;58.948;2023-01-31T13:57:41;97271.25;;;-11.58;55.19
49943;BME280;36011;53.362;58.948;2023-01-31T14:00:47;97276.41;;;-11.55;54.95
49943;BME280;36011;53.362;58.948;2023-01-31T14:22:45;97286.56;;;-11.55;55.25
49943;BME280;36011;53.362;58.948;2023-01-31T14:29:28;97283.22;;;-11.54;55.24
49943;BME280;36011;53.362;58.948;2023-01-31T14:35:47;97298.09;;;-11.66;55.58
49943;BME280;36011;53.362;58.948;2023-01-31T14:58:16;97291.13;;;-12.04;57.27
49943;BME280;36011;53.362;58.948;2023-01-31T15:01:19;97294.22;;;-11.84;57.24
49943;BME280;36011;53.362;58.948;2023-01-31T15:04:23;97297.44;;;-11.91;57.30
49943;BME280;36011;53.362;58.948;2023-01-31T15:10:52;97303.50;;;-12.14;58.31
49943;BME280;36011;53.362;58.948;2023-01-31T15:13:56;97307.38;;;-12.26;58.34
49943;BME280;36011;53.362;58.948;2023-01-31T15:17:43;97305.25;;;-12.40;57.88
49943;BME280;36011;53.362;58.948;2023-01-31T15:20:23;97293.00;;;-12.27;58.42
49943;BME280;36011;53.362;58.948;2023-01-31T15:23:31;97303.22;;;-12.24;58.69
49943;BME280;36011;53.362;58.948;2023-01-31T15:26:37;97297.22;;;-12.26;58.58
49943;BME280;36011;53.362;58.948;2023-01-31T15:29:50;97297.38;;;-12.21;58.55
49943;BME280;36011;53.362;58.948;2023-01-31T15:32:55;97300.06;;;-12.16;58.96
49943;BME280;36011;53.362;58.948;2023-01-31T15:35:59;97302.25;;;-12.54;58.71
49943;BME280;36011;53.362;58.948;2023-01-31T15:39:22;97295.75;;;-12.46;59.57
49943;BME280;36011;53.362;58.948;2023-01-31T15:42:28;97294.66;;;-12.27;58.98
49943;BME280;36011;53.362;58.948;2023-01-31T15:45:31;97296.16;;;-12.61;59.17
49943;BME280;36011;53.362;58.948;2023-01-31T15:48:32;97298.59;;;-12.90;59.30
49943;BME280;36011;53.362;58.948;2023-01-31T15:51:35;97301.41;;;-12.82;59.85
49943;BME280;36011;53.362;58.948;2023-01-31T15:54:37;97300.94;;;-12.96;59.43
49943;BME280;36011;53.362;58.948;2023-01-31T15:57:46;97303.78;;;-13.11;59.72
49943;BME280;36011;53.362;58.948;2023-01-31T16:00:57;97305.94;;;-12.97;59.78
49943;BME280;36011;53.362;58.948;2023-01-31T16:04:01;97299.00;;;-12.77;59.77
49943;BME280;36011;53.362;58.948;2023-01-31T16:07:13;97298.44;;;-12.94;59.85
49943;BME280;36011;53.362;58.948;2023-01-31T16:10:20;97293.47;;;-13.17;60.14
49943;BME280;36011;53.362;58.948;2023-01-31T16:13:24;97306.84;;;-13.21;60.16
49943;BME280;36011;53.362;58.948;2023-01-31T16:16:34;97315.47;;;-13.16;59.60
49943;BME280;36011;53.362;58.948;2023-01-31T16:19:39;97307.25;;;-13.08;59.93
49943;BME280;36011;53.362;58.948;2023-01-31T16:22:40;97304.06;;;-13.28;59.68
49943;BME280;36011;53.362;58.948;2023-01-31T16:29:05;97309.00;;;-13.07;59.69
49943;BME280;36011;53.362;58.948;2023-01-31T16:35:39;97303.22;;;-13.29;60.00
49943;BME280;36011;53.362;58.948;2023-01-31T16:38:53;97304.19;;;-13.25;60.21
49943;BME280;36011;53.362;58.948;2023-01-31T16:41:57;97305.84;;;-13.26;59.90
49943;BME280;36011;53.362;58.948;2023-01-31T16:45:23;97307.59;;;-13.23;59.62
49943;BME280;36011;53.362;58.948;2023-01-31T16:48:29;97303.31;;;-13.26;60.03
49943;BME280;36011;53.362;58.948;2023-01-31T16:51:41;97303.69;;;-13.14;60.58
49943;BME280;36011;53.362;58.948;2023-01-31T16:54:50;97306.56;;;-13.30;60.55
49943;BME280;36011;53.362;58.948;2023-01-31T16:57:52;97294.69;;;-13.31;60.51
49943;BME280;36011;53.362;58.948;2023-01-31T17:01:08;97304.59;;;-13.13;60.41
49943;BME280;36011;53.362;58.948;2023-01-31T17:04:18;97293.63;;;-13.38;60.82
49943;BME280;36011;53.362;58.948;2023-01-31T17:10:25;97296.97;;;-13.63;60.69
49943;BME280;36011;53.362;58.948;2023-01-31T17:13:30;97299.97;;;-13.73;61.30
49943;BME280;36011;53.362;58.948;2023-01-31T17:16:36;97299.63;;;-13.82;61.14
49943;BME280;36011;53.362;58.948;2023-01-31T17:19:39;97307.47;;;-13.98;60.96
49943;BME280;36011;53.362;58.948;2023-01-31T17:22:41;97315.78;;;-14.01;61.31
49943;BME280;36011;53.362;58.948;2023-01-31T17:25:45;97307.97;;;-13.85;60.49
49943;BME280;36011;53.362;58.948;2023-01-31T17:28:48;97302.88;;;-13.86;60.94
49943;BME280;36011;53.362;58.948;2023-01-31T17:31:54;97311.34;;;-13.62;61.06
49943;BME280;36011;53.362;58.948;2023-01-31T17:34:57;97319.56;;;-13.67;60.67
49943;BME280;36011;53.362;58.948;2023-01-31T17:37:58;97310.91;;;-13.74;60.88
49943;BME280;36011;53.362;58.948;2023-01-31T17:41:03;97321.88;;;-13.96;61.24
49943;BME280;36011;53.362;58.948;2023-01-31T17:44:08;97314.25;;;-13.75;61.61
49943;BME280;36011;53.362;58.948;2023-01-31T17:47:15;97322.28;;;-13.63;61.29
49943;BME280;36011;53.362;58.948;2023-01-31T17:50:26;97320.66;;;-13.61;61.50
49943;BME280;36011;53.362;58.948;2023-01-31T17:53:30;97312.75;;;-13.70;61.25
49943;BME280;36011;53.362;58.948;2023-01-31T17:56:31;97312.66;;;-13.23;61.12
49943;BME280;36011;53.362;58.948;2023-01-31T17:59:34;97310.31;;;-13.19;61.25
49943;BME280;36011;53.362;58.948;2023-01-31T18:02:39;97311.97;;;-12.94;61.74
49943;BME280;36011;53.362;58.948;2023-01-31T18:05:45;97322.97;;;-12.93;61.17
49943;BME280;36011;53.362;58.948;2023-01-31T18:08:49;97322.44;;;-12.84;61.83
49943;BME280;36011;53.362;58.948;2023-01-31T18:11:52;97328.84;;;-12.69;61.46
49943;BME280;36011;53.362;58.948;2023-01-31T18:14:53;97320.16;;;-12.50;61.83
49943;BME280;36011;53.362;58.948;2023-01-31T18:17:57;97328.34;;;-12.58;61.25
49943;BME280;36011;53.362;58.948;2023-01-31T18:20:59;97329.75;;;-12.67;61.44
49943;BME280;36011;53.362;58.948;2023-01-31T18:24:02;97325.09;;;-12.80;61.52
49943;BME280;36011;53.362;58.948;2023-01-31T18:27:05;97323.84;;;-12.93;61.92
49943;BME280;36011;53.362;58.948;2023-01-31T18:30:09;97317.69;;;-12.99;61.83
49943;BME280;36011;53.362;58.948;2023-01-31T18:33:11;97320.72;;;-13.09;61.88
49943;BME280;36011;53.362;58.948;2023-01-31T18:36:16;97328.22;;;-13.13;61.69
49943;BME280;36011;53.362;58.948;2023-01-31T18:39:23;97325.41;;;-12.71;61.25
49943;BME280;36011;53.362;58.948;2023-01-31T18:42:24;97327.22;;;-12.67;60.50
49943;BME280;36011;53.362;58.948;2023-01-31T18:45:30;97329.03;;;-12.62;59.82
49943;BME280;36011;53.362;58.948;2023-01-31T18:48:34;97333.31;;;-12.87;60.32
49943;BME280;36011;53.362;58.948;2023-01-31T18:51:37;97337.63;;;-12.84;60.22
49943;BME280;36011;53.362;58.948;2023-01-31T18:54:41;97335.13;;;-12.83;60.70
49943;BME280;36011;53.362;58.948;2023-01-31T18:57:42;97330.97;;;-12.55;59.87
49943;BME280;36011;53.362;58.948;2023-01-31T19:00:45;97329.84;;;-12.63;59.59
49943;BME280;36011;53.362;58.948;2023-01-31T19:03:49;97335.66;;;-12.68;59.94
49943;BME280;36011;53.362;58.948;2023-01-31T19:06:54;97333.91;;;-12.69;59.83
49943;BME280;36011;53.362;58.948;2023-01-31T19:10:00;97334.09;;;-12.62;60.19
49943;BME280;36011;53.362;58.948;2023-01-31T19:13:01;97326.84;;;-12.79;59.39
49943;BME280;36011;53.362;58.948;2023-01-31T19:16:03;97324.09;;;-12.59;59.92
49943;BME280;36011;53.362;58.948;2023-01-31T19:19:07;97328.59;;;-12.51;59.86
49943;BME280;36011;53.362;58.948;2023-01-31T19:22:11;97320.78;;;-12.30;59.84
49943;BME280;36011;53.362;58.948;2023-01-31T19:25:12;97329.47;;;-12.49;59.89
49943;BME280;36011;53.362;58.948;2023-01-31T19:28:17;97328.59;;;-12.24;59.19